Time;durP1;ratioP1;P1;durP2;ratioP2;P2;SDS_P1;SDS_P2;PMS_P1;PMS_P2;Temp;Humidity;BMP_temperature;BMP_pressure;BME280_temperature;BME280_humidity;BME280_pressure;Samples;Min_cycle;Max_cycle;Signal;HPM_P1;HPM_P2
2022/02/18 00:00:52;;;;;;;;;;;333.30;1126.40;;;;;;5093960;28;19915;-57
2022/02/18 00:03:21;;;;;;;;;;;333.30;1126.40;;;;;;5094108;28;20327;-62
2022/02/18 00:05:50;;;;;;;;;;;333.30;1152.00;;;;;;5093870;28;19904;-61
2022/02/18 00:08:19;;;;;;;;;;;333.30;1152.00;;;;;;5093835;28;19970;-56
2022/02/18 00:10:48;;;;;;;;;;;333.20;1152.00;;;;;;5093571;28;20008;-61
2022/02/18 00:13:17;;;;;;;;;;;333.20;1152.00;;;;;;5093694;28;19904;-58
2022/02/18 00:15:46;;;;;;;;;;;333.20;1152.00;;;;;;5093658;28;19919;-57
2022/02/18 00:18:12;;;;;;;;;;;333.20;1152.00;;;;;;5093688;28;20425;-58
2022/02/18 00:20:41;;;;;;;;;;;333.10;1152.00;;;;;;5093465;28;19904;-57
2022/02/18 00:23:10;;;;;;;;;;;333.10;1152.00;;;;;;5095715;28;20024;-59
2022/02/18 00:25:44;;;;;;;;;;;333.10;1152.00;;;;;;5097356;28;19926;-57
2022/02/18 00:28:13;;;;;;;;;;;333.10;1177.60;;;;;;5097147;28;19904;-57
2022/02/18 00:30:41;;;;;;;;;;;333.00;1177.60;;;;;;5097280;28;19912;-57
2022/02/18 00:33:13;;;;;;;;;;;333.00;1152.00;;;;;;5096990;28;19973;-62
2022/02/18 00:35:42;;;;;;;;;;;333.00;1177.60;;;;;;5096971;28;19915;-62
2022/02/18 00:38:10;;;;;;;;;;;333.00;1177.60;;;;;;5097040;28;19911;-62
2022/02/18 00:40:39;;;;;;;;;;;333.00;1152.00;;;;;;5097068;28;19904;-58
2022/02/18 00:43:07;;;;;;;;;;;333.00;1177.60;;;;;;5097117;28;19957;-62
2022/02/18 00:45:36;;;;;;;;;;;333.00;1152.00;;;;;;5096996;28;19904;-62
2022/02/18 00:48:04;;;;;;;;;;;333.00;1152.00;;;;;;5096770;28;19918;-58
2022/02/18 00:50:33;;;;;;;;;;;333.00;1152.00;;;;;;5097342;28;20276;-58
2022/02/18 00:52:58;;;;;;;;;;;333.00;1177.60;;;;;;5096891;28;20003;-59
2022/02/18 00:55:27;;;;;;;;;;;333.00;1177.60;;;;;;5096600;28;20002;-58
2022/02/18 00:57:55;;;;;;;;;;;333.00;1177.60;;;;;;5096818;28;19926;-58
2022/02/18 01:00:24;;;;;;;;;;;333.00;1177.60;;;;;;5096487;28;19908;-58
2022/02/18 01:02:52;;;;;;;;;;;333.00;1177.60;;;;;;5096947;28;19912;-58
2022/02/18 01:05:21;;;;;;;;;;;332.90;1177.60;;;;;;5096495;28;19904;-58
2022/02/18 01:07:49;;;;;;;;;;;333.00;1177.60;;;;;;5096412;28;19904;-58
2022/02/18 01:10:18;;;;;;;;;;;332.90;1177.60;;;;;;5096349;28;19904;-60
2022/02/18 01:12:46;;;;;;;;;;;332.90;1177.60;;;;;;5096387;28;19904;-58
2022/02/18 01:15:15;;;;;;;;;;;332.90;1177.60;;;;;;5096074;28;19972;-58
2022/02/18 01:17:41;;;;;;;;;;;332.90;1177.60;;;;;;5096663;28;19904;-57
2022/02/18 01:20:12;;;;;;;;;;;332.80;1177.60;;;;;;5096347;28;20285;-57
2022/02/18 01:22:41;;;;;;;;;;;332.80;1203.20;;;;;;5096194;28;19904;-58
2022/02/18 01:25:09;;;;;;;;;;;332.80;1177.60;;;;;;5096531;28;20352;-57
2022/02/18 01:27:41;;;;;;;;;;;332.80;1203.20;;;;;;5096245;28;19927;-57
2022/02/18 01:30:10;;;;;;;;;;;308.10;1152.00;;;;;;5096052;28;20330;-62
2022/02/18 01:32:39;;;;;;;;;;;308.00;1177.60;;;;;;5095992;28;19916;-58
2022/02/18 01:35:07;;;;;;;;;;;308.00;1152.00;;;;;;5094890;28;19919;-57
2022/02/18 01:37:36;;;;;;;;;;;307.90;1177.60;;;;;;5095795;28;19907;-62
2022/02/18 01:40:05;;;;;;;;;;;307.90;1177.60;;;;;;5096015;28;19911;-58
2022/02/18 01:42:34;;;;;;;;;;;307.90;1177.60;;;;;;5095744;28;20380;-56
2022/02/18 01:45:03;;;;;;;;;;;307.80;1177.60;;;;;;5095813;28;19950;-57
2022/02/18 01:47:31;;;;;;;;;;;307.80;1177.60;;;;;;5096424;28;19988;-58
2022/02/18 01:50:00;;;;;;;;;;;307.80;1177.60;;;;;;5095630;28;19923;-57
2022/02/18 01:52:31;;;;;;;;;;;307.70;1203.20;;;;;;5095321;28;19950;-58
2022/02/18 01:54:59;;;;;;;;;;;307.60;1203.20;;;;;;5095556;28;19912;-62
2022/02/18 01:57:28;;;;;;;;;;;307.70;1203.20;;;;;;5095699;28;19982;-58
2022/02/18 01:59:57;;;;;;;;;;;307.60;1203.20;;;;;;5095429;28;19911;-63
2022/02/18 02:02:25;;;;;;;;;;;307.50;1203.20;;;;;;5095699;28;19929;-61
2022/02/18 02:04:53;;;;;;;;;;;307.50;1203.20;;;;;;5095515;28;20380;-63
2022/02/18 02:07:22;;;;;;;;;;;307.50;1228.80;;;;;;5095204;28;19911;-59
2022/02/18 02:09:48;;;;;;;;;;;307.40;1228.80;;;;;;5095679;28;19934;-60
2022/02/18 02:12:16;;;;;;;;;;;307.30;1228.80;;;;;;5095484;28;19904;-58
2022/02/18 02:14:45;;;;;;;;;;;307.30;1228.80;;;;;;5095307;28;19912;-57
2022/02/18 02:17:10;;;;;;;;;;;307.20;1228.80;;;;;;5095048;28;19936;-57
2022/02/18 02:19:39;;;;;;;;;;;307.20;1228.80;;;;;;5095298;28;19947;-57
2022/02/18 02:22:08;;;;;;;;;;;307.20;1228.80;;;;;;5094971;28;19904;-57
2022/02/18 02:24:33;;;;;;;;;;;282.50;1203.20;;;;;;5094988;28;20372;-58
2022/02/18 02:27:02;;;;;;;;;;;282.50;1228.80;;;;;;5094949;28;19907;-57
2022/02/18 02:29:31;;;;;;;;;;;282.50;1203.20;;;;;;5094832;28;19950;-57
2022/02/18 02:31:59;;;;;;;;;;;282.40;1203.20;;;;;;5094965;28;19920;-58
2022/02/18 02:34:28;;;;;;;;;;;282.30;1228.80;;;;;;5094836;28;19912;-57
2022/02/18 02:36:56;;;;;;;;;;;282.30;1228.80;;;;;;5094971;28;20063;-57
2022/02/18 02:39:25;;;;;;;;;;;282.30;1228.80;;;;;;5094752;28;19904;-58
2022/02/18 02:41:50;;;;;;;;;;;282.30;1228.80;;;;;;5094798;28;20393;-56
2022/02/18 02:44:17;;;;;;;;;;;282.30;1228.80;;;;;;5095374;28;19911;-58
2022/02/18 02:46:46;;;;;;;;;;;282.30;1228.80;;;;;;5094584;28;19904;-57
2022/02/18 02:49:11;;;;;;;;;;;282.30;1228.80;;;;;;5076464;28;19904;-58
2022/02/18 02:51:40;;;;;;;;;;;282.40;1203.20;;;;;;5094434;28;19904;-57
2022/02/18 02:54:08;;;;;;;;;;;282.40;1203.20;;;;;;5094417;28;20354;-57
2022/02/18 02:56:34;;;;;;;;;;;282.40;1228.80;;;;;;5094663;28;19914;-60
2022/02/18 02:59:03;;;;;;;;;;;282.40;1203.20;;;;;;5095144;28;19952;-57
2022/02/18 03:01:31;;;;;;;;;;;282.30;1228.80;;;;;;5094647;28;20452;-57
2022/02/18 03:03:57;;;;;;;;;;;282.30;1228.80;;;;;;5094402;28;19999;-57
2022/02/18 03:06:26;;;;;;;;;;;282.20;1228.80;;;;;;5094164;28;19939;-58
2022/02/18 03:08:54;;;;;;;;;;;282.20;1228.80;;;;;;5094500;28;20258;-62
2022/02/18 03:11:21;;;;;;;;;;;282.10;1254.40;;;;;;5094358;28;20270;-57
2022/02/18 03:13:51;;;;;;;;;;;282.10;1228.80;;;;;;5094190;28;20235;-57
2022/02/18 03:16:21;;;;;;;;;;;282.10;1228.80;;;;;;5094388;28;19991;-62
2022/02/18 03:18:49;;;;;;;;;;;282.10;1228.80;;;;;;5094583;28;20411;-57
2022/02/18 03:21:18;;;;;;;;;;;282.10;1228.80;;;;;;5094194;28;19904;-56
2022/02/18 03:23:46;;;;;;;;;;;282.10;1228.80;;;;;;5094201;28;19908;-61
2022/02/18 03:26:15;;;;;;;;;;;282.00;1228.80;;;;;;5094065;28;19903;-62
2022/02/18 03:28:44;;;;;;;;;;;282.10;1228.80;;;;;;5094187;28;20262;-59
2022/02/18 03:31:12;;;;;;;;;;;282.10;1228.80;;;;;;5094071;28;19904;-57
2022/02/18 03:33:41;;;;;;;;;;;282.00;1228.80;;;;;;5093779;28;19916;-57
2022/02/18 03:36:10;;;;;;;;;;;282.00;1228.80;;;;;;5093787;28;19912;-58
2022/02/18 03:38:38;;;;;;;;;;;282.00;1228.80;;;;;;5093922;28;19904;-63
2022/02/18 03:41:07;;;;;;;;;;;282.00;1228.80;;;;;;5094002;28;19904;-62
2022/02/18 03:43:34;;;;;;;;;;;281.80;1254.40;;;;;;5093699;28;20364;-60
2022/02/18 03:46:03;;;;;;;;;;;281.80;1254.40;;;;;;5093835;28;20007;-64
2022/02/18 03:48:32;;;;;;;;;;;281.80;1254.40;;;;;;5094062;28;19929;-63
2022/02/18 03:51:01;;;;;;;;;;;281.70;1280.00;;;;;;5094376;28;19911;-63
2022/02/18 03:53:29;;;;;;;;;;;281.60;1280.00;;;;;;5093985;28;19911;-62
2022/02/18 03:56:04;;;;;;;;;;;281.60;1280.00;;;;;;5093876;28;19913;-63
2022/02/18 03:58:32;;;;;;;;;;;281.60;1280.00;;;;;;5096709;28;20392;-63
2022/02/18 04:01:01;;;;;;;;;;;281.60;1280.00;;;;;;5097870;28;19911;-59
2022/02/18 04:03:29;;;;;;;;;;;256.90;1280.00;;;;;;5097962;28;19904;-63
2022/02/18 04:05:58;;;;;;;;;;;281.60;1280.00;;;;;;5097639;28;19904;-62
2022/02/18 04:08:27;;;;;;;;;;;281.60;1280.00;;;;;;5097896;28;19998;-57
2022/02/18 04:10:55;;;;;;;;;;;256.90;1254.40;;;;;;5097737;28;20029;-57
2022/02/18 04:13:24;;;;;;;;;;;281.60;1280.00;;;;;;5097650;28;19904;-56
2022/02/18 04:15:52;;;;;;;;;;;281.60;1280.00;;;;;;5097472;28;20008;-56
2022/02/18 04:18:18;;;;;;;;;;;256.90;1280.00;;;;;;5097796;28;20006;-57
2022/02/18 04:20:49;;;;;;;;;;;256.90;1280.00;;;;;;5097382;28;19935;-58
2022/02/18 04:23:18;;;;;;;;;;;281.60;1382.40;;;;;;5097485;28;20269;-57
2022/02/18 04:25:46;;;;;;;;;;;281.60;1331.20;;;;;;5097134;28;19904;-57
2022/02/18 04:28:17;;;;;;;;;;;281.60;1305.60;;;;;;5097387;28;19910;-58
2022/02/18 04:30:46;;;;;;;;;;;256.90;1280.00;;;;;;5097396;28;19935;-58
2022/02/18 04:33:15;;;;;;;;;;;256.90;1280.00;;;;;;5097157;28;19950;-58
2022/02/18 04:35:41;;;;;;;;;;;256.80;1280.00;;;;;;5097244;28;19959;-57
2022/02/18 04:38:10;;;;;;;;;;;256.80;1280.00;;;;;;5096831;28;19946;-58
2022/02/18 04:40:39;;;;;;;;;;;256.80;1280.00;;;;;;5097096;28;19911;-58
2022/02/18 04:43:07;;;;;;;;;;;256.70;1280.00;;;;;;5096868;28;19907;-58
2022/02/18 04:45:36;;;;;;;;;;;256.60;1280.00;;;;;;5097378;28;19987;-58
2022/02/18 04:48:05;;;;;;;;;;;256.50;1280.00;;;;;;5097102;28;19990;-57
2022/02/18 04:50:33;;;;;;;;;;;256.50;1305.60;;;;;;5078361;28;19915;-57
2022/02/18 04:53:01;;;;;;;;;;;256.30;1305.60;;;;;;5096780;28;19982;-56
2022/02/18 04:55:30;;;;;;;;;;;256.30;1305.60;;;;;;5096610;28;19919;-56
2022/02/18 04:57:58;;;;;;;;;;;256.30;1305.60;;;;;;5096812;28;19912;-56
2022/02/18 05:00:24;;;;;;;;;;;256.30;1305.60;;;;;;5097018;28;19998;-62
2022/02/18 05:02:52;;;;;;;;;;;256.30;1305.60;;;;;;5096686;28;20322;-59
2022/02/18 05:05:21;;;;;;;;;;;256.30;1305.60;;;;;;5096751;28;19911;-57
2022/02/18 05:07:49;;;;;;;;;;;256.30;1305.60;;;;;;5096361;28;19904;-56
2022/02/18 05:10:18;;;;;;;;;;;256.30;1305.60;;;;;;5095407;28;20278;-56
2022/02/18 05:12:46;;;;;;;;;;;256.20;1305.60;;;;;;5096739;28;19904;-57
2022/02/18 05:15:14;;;;;;;;;;;256.20;1305.60;;;;;;5096419;28;20277;-57
2022/02/18 05:17:48;;;;;;;;;;;256.20;1305.60;;;;;;5096947;28;19954;-57
2022/02/18 05:20:16;;;;;;;;;;;256.10;1305.60;;;;;;5096164;28;19977;-58
2022/02/18 05:22:45;;;;;;;;;;;256.30;1305.60;;;;;;5095665;28;19950;-57
2022/02/18 05:25:13;;;;;;;;;;;256.10;1305.60;;;;;;5096192;28;20238;-57
2022/02/18 05:27:42;;;;;;;;;;;256.10;1305.60;;;;;;5096360;28;20078;-60
2022/02/18 05:30:11;;;;;;;;;;;256.10;1305.60;;;;;;5096231;28;19947;-58
2022/02/18 05:32:39;;;;;;;;;;;256.10;1305.60;;;;;;5095786;28;19916;-56
2022/02/18 05:35:07;;;;;;;;;;;256.10;1305.60;;;;;;5096029;28;20001;-57
2022/02/18 05:37:36;;;;;;;;;;;256.00;1305.60;;;;;;5095869;28;20289;-57
2022/02/18 05:40:04;;;;;;;;;;;256.00;1331.20;;;;;;5095856;28;20347;-56
2022/02/18 05:42:30;;;;;;;;;;;256.00;1331.20;;;;;;5095885;28;19908;-61
2022/02/18 05:44:58;;;;;;;;;;;256.00;1331.20;;;;;;5095940;28;20366;-57
2022/02/18 05:47:27;;;;;;;;;;;256.00;1331.20;;;;;;5095754;28;19911;-62
2022/02/18 05:49:56;;;;;;;;;;;256.00;1331.20;;;;;;5095784;28;19950;-61
2022/02/18 05:52:24;;;;;;;;;;;231.30;1331.20;;;;;;5095806;28;19908;-57
2022/02/18 05:54:53;;;;;;;;;;;231.30;1331.20;;;;;;5095286;28;19922;-57
2022/02/18 05:57:21;;;;;;;;;;;231.30;1331.20;;;;;;5095676;28;20354;-62
2022/02/18 05:59:50;;;;;;;;;;;231.20;1356.80;;;;;;5095848;28;20008;-62
2022/02/18 06:02:19;;;;;;;;;;;231.20;1356.80;;;;;;5095650;28;19908;-61
2022/02/18 06:04:47;;;;;;;;;;;231.20;1356.80;;;;;;5095601;28;19911;-60
2022/02/18 06:07:14;;;;;;;;;;;231.20;1356.80;;;;;;5095498;28;19904;-57
2022/02/18 06:09:44;;;;;;;;;;;231.20;1356.80;;;;;;5095681;28;20370;-57
2022/02/18 06:12:12;;;;;;;;;;;231.20;1356.80;;;;;;5095635;28;19912;-58
2022/02/18 06:14:41;;;;;;;;;;;231.20;1356.80;;;;;;5095301;28;19912;-57
2022/02/18 06:17:10;;;;;;;;;;;231.20;1382.40;;;;;;5095235;28;19915;-57
2022/02/18 06:19:38;;;;;;;;;;;231.20;1382.40;;;;;;5095148;28;19992;-58
2022/02/18 06:22:06;;;;;;;;;;;231.20;1382.40;;;;;;5094885;28;20342;-62
2022/02/18 06:24:33;;;;;;;;;;;231.20;1382.40;;;;;;5095094;28;19947;-62
2022/02/18 06:27:02;;;;;;;;;;;231.20;1382.40;;;;;;5095056;28;19987;-57
2022/02/18 06:29:30;;;;;;;;;;;231.20;1382.40;;;;;;5094498;28;19991;-62
2022/02/18 06:31:59;;;;;;;;;;;231.10;1408.00;;;;;;5094760;28;19952;-57
2022/02/18 06:34:28;;;;;;;;;;;231.20;1382.40;;;;;;5095041;28;19908;-61
2022/02/18 06:36:56;;;;;;;;;;;231.10;1408.00;;;;;;5095066;28;19910;-57
2022/02/18 06:39:25;;;;;;;;;;;231.20;1408.00;;;;;;5094982;28;19904;-58
2022/02/18 06:41:53;;;;;;;;;;;231.20;1408.00;;;;;;5094975;28;19958;-61
2022/02/18 06:44:22;;;;;;;;;;;231.20;1408.00;;;;;;5094784;28;20091;-58
2022/02/18 06:46:51;;;;;;;;;;;231.30;1408.00;;;;;;5094852;28;19910;-63
2022/02/18 06:49:19;;;;;;;;;;;231.30;1408.00;;;;;;5094526;28;19908;-57
2022/02/18 06:51:55;;;;;;;;;;;231.30;1408.00;;;;;;5094381;28;19904;-58
2022/02/18 06:54:24;;;;;;;;;;;256.00;1408.00;;;;;;5094565;28;19908;-59
2022/02/18 06:56:53;;;;;;;;;;;256.00;1408.00;;;;;;5094554;28;19927;-57
2022/02/18 06:59:19;;;;;;;;;;;256.10;1408.00;;;;;;5094743;28;19947;-61
2022/02/18 07:01:52;;;;;;;;;;;256.20;1408.00;;;;;;5094601;28;20282;-58
2022/02/18 07:04:24;;;;;;;;;;;256.20;1408.00;;;;;;5094849;28;19957;-63
2022/02/18 07:06:52;;;;;;;;;;;256.30;1408.00;;;;;;5094265;28;19943;-61
2022/02/18 07:09:19;;;;;;;;;;;256.30;1408.00;;;;;;5094384;28;19904;-63
2022/02/18 07:11:47;;;;;;;;;;;256.30;1408.00;;;;;;5094446;28;19988;-63
2022/02/18 07:14:17;;;;;;;;;;;256.40;1408.00;;;;;;5094640;28;20057;-60
2022/02/18 07:16:45;;;;;;;;;;;256.40;1408.00;;;;;;5094112;28;19904;-62
2022/02/18 07:19:14;;;;;;;;;;;256.40;1408.00;;;;;;5094360;28;19904;-63
2022/02/18 07:21:43;;;;;;;;;;;256.40;1433.60;;;;;;5094356;28;19908;-60
2022/02/18 07:24:12;;;;;;;;;;;256.60;1408.00;;;;;;5094404;28;19942;-63
2022/02/18 07:26:40;;;;;;;;;;;256.60;1433.60;;;;;;5093654;28;19960;-62
2022/02/18 07:29:09;;;;;;;;;;;256.60;1433.60;;;;;;5094256;28;19930;-59
2022/02/18 07:31:36;;;;;;;;;;;256.60;1433.60;;;;;;5101741;28;19977;-61
2022/02/18 07:34:01;;;;;;;;;;;256.60;1433.60;;;;;;5109933;28;19918;-58
2022/02/18 07:36:30;;;;;;;;;;;256.80;1433.60;;;;;;5105272;28;19995;-58
2022/02/18 07:38:58;;;;;;;;;;;256.80;1433.60;;;;;;5114764;28;19904;-58
2022/02/18 07:41:27;;;;;;;;;;;256.90;1433.60;;;;;;5114800;28;19907;-58
2022/02/18 07:43:55;;;;;;;;;;;281.60;1459.20;;;;;;5114644;28;19986;-58
2022/02/18 07:46:24;;;;;;;;;;;281.70;1459.20;;;;;;5114296;28;19986;-58
2022/02/18 07:48:52;;;;;;;;;;;281.70;1459.20;;;;;;5114341;28;19908;-58
2022/02/18 07:51:21;;;;;;;;;;;281.80;1459.20;;;;;;5113938;28;20264;-58
2022/02/18 07:53:50;;;;;;;;;;;281.90;1459.20;;;;;;5114400;28;19911;-61
2022/02/18 07:56:18;;;;;;;;;;;282.10;1433.60;;;;;;5114079;28;19920;-58
2022/02/18 07:58:44;;;;;;;;;;;282.10;1433.60;;;;;;5114096;28;19911;-58
2022/02/18 08:01:17;;;;;;;;;;;282.30;1433.60;;;;;;5114190;28;20315;-60
2022/02/18 08:03:45;;;;;;;;;;;282.30;1433.60;;;;;;5114179;28;19903;-58
2022/02/18 08:06:14;;;;;;;;;;;282.40;1433.60;;;;;;5095488;28;19935;-61
2022/02/18 08:08:43;;;;;;;;;;;282.50;1408.00;;;;;;5114164;28;19904;-58
2022/02/18 08:11:12;;;;;;;;;;;307.20;1433.60;;;;;;5114195;28;19910;-60
2022/02/18 08:13:41;;;;;;;;;;;307.30;1433.60;;;;;;5114030;28;19930;-59
2022/02/18 08:16:07;;;;;;;;;;;307.40;1433.60;;;;;;5114029;28;19916;-62
2022/02/18 08:18:37;;;;;;;;;;;307.40;1408.00;;;;;;5114157;28;20093;-62
2022/02/18 08:21:06;;;;;;;;;;;307.50;1408.00;;;;;;5113970;28;19904;-60
2022/02/18 08:23:34;;;;;;;;;;;307.60;1408.00;;;;;;5114122;28;19903;-56
2022/02/18 08:26:03;;;;;;;;;;;307.60;1408.00;;;;;;5114207;28;20002;-59
2022/02/18 08:28:32;;;;;;;;;;;307.70;1433.60;;;;;;5114076;28;19911;-56
2022/02/18 08:31:00;;;;;;;;;;;307.70;1433.60;;;;;;5113957;28;19910;-56
2022/02/18 08:33:30;;;;;;;;;;;307.80;1408.00;;;;;;5113842;28;19968;-59
2022/02/18 08:35:58;;;;;;;;;;;307.80;1382.40;;;;;;5113824;28;20404;-56
2022/02/18 08:38:27;;;;;;;;;;;307.80;1356.80;;;;;;5113915;28;19957;-56
2022/02/18 08:40:55;;;;;;;;;;;307.90;1331.20;;;;;;5113944;28;19911;-58
2022/02/18 08:43:24;;;;;;;;;;;307.90;1331.20;;;;;;5115060;28;20377;-56
2022/02/18 08:45:52;;;;;;;;;;;307.90;1331.20;;;;;;5117195;28;19911;-58
2022/02/18 08:48:21;;;;;;;;;;;308.00;1305.60;;;;;;5117378;28;19908;-58
2022/02/18 08:50:49;;;;;;;;;;;308.10;1305.60;;;;;;5116822;28;20265;-56
2022/02/18 08:53:18;;;;;;;;;;;308.10;1305.60;;;;;;5117101;28;19908;-56
2022/02/18 08:55:46;;;;;;;;;;;308.10;1305.60;;;;;;5117280;28;19918;-59
2022/02/18 08:58:12;;;;;;;;;;;332.80;1305.60;;;;;;5117578;28;20350;-57
2022/02/18 09:00:41;;;;;;;;;;;332.80;1305.60;;;;;;5117325;28;19904;-57
2022/02/18 09:03:10;;;;;;;;;;;332.80;1305.60;;;;;;5117189;28;19908;-56
2022/02/18 09:05:38;;;;;;;;;;;332.90;1305.60;;;;;;5117325;28;19925;-58
2022/02/18 09:08:07;;;;;;;;;;;332.90;1305.60;;;;;;5117167;28;19904;-57
2022/02/18 09:10:35;;;;;;;;;;;332.90;1305.60;;;;;;5117199;28;20345;-58
2022/02/18 09:13:05;;;;;;;;;;;333.00;1305.60;;;;;;5116967;28;19961;-58
2022/02/18 09:15:34;;;;;;;;;;;333.00;1305.60;;;;;;5116578;28;19965;-57
2022/02/18 09:18:02;;;;;;;;;;;333.00;1280.00;;;;;;5116884;28;19904;-58
2022/02/18 09:20:33;;;;;;;;;;;333.10;1254.40;;;;;;5116666;28;20349;-56
2022/02/18 09:23:01;;;;;;;;;;;333.10;1228.80;;;;;;5116863;28;19907;-57
2022/02/18 09:25:30;;;;;;;;;;;333.10;1203.20;;;;;;5117037;28;19994;-58
2022/02/18 09:28:04;;;;;;;;;;;333.10;1177.60;;;;;;5116606;28;20338;-56
2022/02/18 09:30:34;;;;;;;;;;;333.20;1177.60;;;;;;5116714;28;19912;-58
2022/02/18 09:33:02;;;;;;;;;;;333.20;1177.60;;;;;;5116544;28;20014;-56
2022/02/18 09:35:31;;;;;;;;;;;333.20;1177.60;;;;;;5116906;28;19943;-56
2022/02/18 09:38:00;;;;;;;;;;;333.30;1152.00;;;;;;5116493;28;19910;-57
2022/02/18 09:40:28;;;;;;;;;;;333.30;1152.00;;;;;;5116542;28;19903;-55
2022/02/18 09:42:58;;;;;;;;;;;333.40;1126.40;;;;;;5116153;28;19904;-58
2022/02/18 09:45:27;;;;;;;;;;;333.40;1126.40;;;;;;5116266;28;20265;-56
2022/02/18 09:47:56;;;;;;;;;;;333.40;1100.80;;;;;;5116517;28;19904;-56
2022/02/18 09:50:25;;;;;;;;;;;333.50;1075.20;;;;;;5116192;28;20257;-58
2022/02/18 09:52:53;;;;;;;;;;;333.50;1075.20;;;;;;5116382;28;19914;-56
2022/02/18 09:55:22;;;;;;;;;;;333.50;1049.60;;;;;;5115580;28;19919;-59
2022/02/18 09:57:53;;;;;;;;;;;333.50;1049.60;;;;;;5116321;28;19981;-56
2022/02/18 10:00:19;;;;;;;;;;;333.50;1075.20;;;;;;5116140;28;19904;-56
2022/02/18 10:02:48;;;;;;;;;;;333.60;1049.60;;;;;;5116130;28;20384;-59
2022/02/18 10:05:20;;;;;;;;;;;333.60;1049.60;;;;;;5115812;28;19903;-56
2022/02/18 10:08:10;;;;;;;;;;;333.60;1049.60;;;;;;5115753;28;19915;-57
2022/02/18 10:10:40;;;;;;;;;;;333.70;1049.60;;;;;;5115604;28;20353;-58
2022/02/18 10:13:24;;;;;;;;;;;333.70;1049.60;;;;;;5115536;28;19903;-58
2022/02/18 10:15:56;;;;;;;;;;;358.40;1049.60;;;;;;5115512;28;19955;-56
2022/02/18 10:18:21;;;;;;;;;;;358.40;1024.00;;;;;;5115709;28;19908;-56
2022/02/18 10:20:50;;;;;;;;;;;358.40;998.40;;;;;;5115592;28;19926;-56
2022/02/18 10:23:21;;;;;;;;;;;358.40;998.40;;;;;;5115266;28;19904;-56
2022/02/18 10:25:52;;;;;;;;;;;358.40;998.40;;;;;;5115177;28;19942;-56
2022/02/18 10:28:21;;;;;;;;;;;358.40;998.40;;;;;;5115395;28;19904;-56
2022/02/18 10:30:59;;;;;;;;;;;358.50;998.40;;;;;;5115572;28;20320;-57
2022/02/18 10:33:28;;;;;;;;;;;358.50;998.40;;;;;;5115159;28;20479;-63
2022/02/18 10:35:58;;;;;;;;;;;358.60;998.40;;;;;;5115510;28;19965;-57
2022/02/18 10:38:31;;;;;;;;;;;358.60;998.40;;;;;;5115365;28;19904;-59
2022/02/18 10:40:59;;;;;;;;;;;358.60;972.80;;;;;;5115295;28;19904;-58
2022/02/18 10:43:26;;;;;;;;;;;358.60;998.40;;;;;;5109568;28;19933;-55
2022/02/18 10:46:05;;;;;;;;;;;358.60;972.80;;;;;;5094877;28;19907;-58
2022/02/18 10:48:34;;;;;;;;;;;358.70;972.80;;;;;;5094800;28;19908;-56
2022/02/18 10:51:04;;;;;;;;;;;358.70;972.80;;;;;;5094927;28;19908;-57
2022/02/18 10:53:34;;;;;;;;;;;358.70;972.80;;;;;;5098844;28;19919;-57
2022/02/18 10:56:02;;;;;;;;;;;358.80;947.20;;;;;;5101907;28;19916;-56
2022/02/18 10:58:29;;;;;;;;;;;358.80;947.20;;;;;;5102875;28;19949;-55
2022/02/18 11:01:00;;;;;;;;;;;358.90;947.20;;;;;;5104204;28;19907;-56
2022/02/18 11:03:27;;;;;;;;;;;358.90;972.80;;;;;;5101041;28;19911;-56
2022/02/18 11:05:55;;;;;;;;;;;358.90;972.80;;;;;;5111050;28;19904;-56
2022/02/18 11:08:30;;;;;;;;;;;358.90;972.80;;;;;;5113539;28;20320;-56
2022/02/18 11:11:07;;;;;;;;;;;359.00;972.80;;;;;;5091933;28;19908;-55
2022/02/18 11:13:34;;;;;;;;;;;359.10;947.20;;;;;;5093073;28;20265;-56
2022/02/18 11:16:02;;;;;;;;;;;359.10;972.80;;;;;;5092805;28;19920;-57
2022/02/18 11:18:28;;;;;;;;;;;359.10;947.20;;;;;;5092863;28;19904;-56
2022/02/18 11:20:54;;;;;;;;;;;359.10;947.20;;;;;;5092866;28;19957;-56
2022/02/18 11:23:23;;;;;;;;;;;359.10;947.20;;;;;;5089953;28;20277;-56
2022/02/18 11:25:49;;;;;;;;;;;359.20;972.80;;;;;;5092664;28;20302;-56
2022/02/18 11:28:16;;;;;;;;;;;359.30;972.80;;;;;;5092499;28;20315;-56
2022/02/18 11:30:47;;;;;;;;;;;359.30;972.80;;;;;;5092632;28;20322;-58
2022/02/18 11:33:31;;;;;;;;;;;384.00;972.80;;;;;;5092280;28;20281;-57
2022/02/18 11:36:00;;;;;;;;;;;384.00;972.80;;;;;;5089947;28;19916;-58
2022/02/18 11:38:26;;;;;;;;;;;384.10;972.80;;;;;;5094547;28;19991;-56
2022/02/18 11:40:54;;;;;;;;;;;384.10;972.80;;;;;;5101803;28;19955;-57
2022/02/18 11:43:34;;;;;;;;;;;384.20;972.80;;;;;;5099637;28;19912;-56
2022/02/18 11:46:03;;;;;;;;;;;384.20;972.80;;;;;;5099082;28;19904;-57
2022/02/18 11:48:36;;;;;;;;;;;384.30;972.80;;;;;;5098029;28;19920;-58
2022/02/18 11:51:15;;;;;;;;;;;384.30;947.20;;;;;;5098127;28;19908;-55
2022/02/18 11:53:51;;;;;;;;;;;384.40;972.80;;;;;;5089938;28;19904;-57
2022/02/18 11:56:35;;;;;;;;;;;384.40;947.20;;;;;;5095157;28;20002;-54
2022/02/18 11:59:03;;;;;;;;;;;384.50;947.20;;;;;;5093847;28;19908;-57
2022/02/18 12:01:47;;;;;;;;;;;384.50;947.20;;;;;;5092351;28;20354;-54
2022/02/18 12:04:16;;;;;;;;;;;384.50;947.20;;;;;;5092326;28;19908;-56
2022/02/18 12:07:03;;;;;;;;;;;384.50;947.20;;;;;;5100027;28;19915;-54
2022/02/18 12:09:47;;;;;;;;;;;384.50;947.20;;;;;;5094840;28;19911;-57
2022/02/18 12:12:33;;;;;;;;;;;384.70;947.20;;;;;;5096243;28;20419;-57
2022/02/18 12:15:20;;;;;;;;;;;384.80;947.20;;;;;;5102455;28;19924;-58
2022/02/18 12:18:02;;;;;;;;;;;384.90;921.60;;;;;;5089623;28;20357;-54
2022/02/18 12:20:29;;;;;;;;;;;409.60;947.20;;;;;;5104544;28;20403;-57
2022/02/18 12:22:55;;;;;;;;;;;409.60;947.20;;;;;;5105096;28;19912;-57
2022/02/18 12:25:28;;;;;;;;;;;409.60;947.20;;;;;;5107161;28;19915;-56
2022/02/18 12:28:14;;;;;;;;;;;409.60;947.20;;;;;;5101274;28;20366;-57
2022/02/18 12:30:45;;;;;;;;;;;409.60;947.20;;;;;;5094194;28;19908;-55
2022/02/18 12:33:10;;;;;;;;;;;409.70;921.60;;;;;;5092906;28;19916;-55
2022/02/18 12:35:40;;;;;;;;;;;409.70;947.20;;;;;;5094574;28;19916;-55
2022/02/18 12:38:06;;;;;;;;;;;409.80;947.20;;;;;;5095868;28;19907;-55
2022/02/18 12:40:33;;;;;;;;;;;409.90;947.20;;;;;;5104476;28;19930;-56
2022/02/18 12:43:00;;;;;;;;;;;409.90;947.20;;;;;;5105095;28;19954;-57
2022/02/18 12:45:36;;;;;;;;;;;410.00;921.60;;;;;;5098187;28;19938;-55
2022/02/18 12:48:02;;;;;;;;;;;410.10;921.60;;;;;;5094337;28;19991;-56
2022/02/18 12:50:31;;;;;;;;;;;410.20;921.60;;;;;;5104125;28;20451;-56
2022/02/18 12:52:58;;;;;;;;;;;410.20;921.60;;;;;;5098845;28;20319;-55
2022/02/18 12:55:24;;;;;;;;;;;410.30;896.00;;;;;;5100216;28;19921;-57
2022/02/18 12:57:53;;;;;;;;;;;410.40;921.60;;;;;;5098612;28;19911;-58
2022/02/18 13:00:22;;;;;;;;;;;410.40;896.00;;;;;;5113727;28;19990;-59
2022/02/18 13:02:52;;;;;;;;;;;410.50;896.00;;;;;;5117353;28;20338;-59
2022/02/18 13:05:26;;;;;;;;;;;435.20;896.00;;;;;;5117135;28;20288;-56
2022/02/18 13:08:01;;;;;;;;;;;435.20;921.60;;;;;;5117092;28;19985;-58
2022/02/18 13:10:32;;;;;;;;;;;435.20;896.00;;;;;;5117008;28;19904;-56
2022/02/18 13:13:01;;;;;;;;;;;435.30;896.00;;;;;;5116872;28;19957;-59
2022/02/18 13:15:30;;;;;;;;;;;435.30;896.00;;;;;;5116896;28;19995;-59
2022/02/18 13:18:01;;;;;;;;;;;435.30;896.00;;;;;;5116822;28;20372;-56
2022/02/18 13:20:33;;;;;;;;;;;435.30;896.00;;;;;;5098121;28;19957;-56
2022/02/18 13:23:17;;;;;;;;;;;435.30;896.00;;;;;;5116752;28;19911;-56
2022/02/18 13:25:48;;;;;;;;;;;435.40;870.40;;;;;;5116623;28;20268;-56
2022/02/18 13:28:24;;;;;;;;;;;435.40;870.40;;;;;;5116480;28;20357;-58
2022/02/18 13:30:54;;;;;;;;;;;435.40;870.40;;;;;;5115968;28;19907;-56
2022/02/18 13:33:20;;;;;;;;;;;435.40;870.40;;;;;;5116476;28;19985;-57
2022/02/18 13:35:51;;;;;;;;;;;435.50;870.40;;;;;;5116510;28;20311;-56
2022/02/18 13:38:21;;;;;;;;;;;435.50;870.40;;;;;;5116356;28;19908;-56
2022/02/18 13:41:22;;;;;;;;;;;435.50;870.40;;;;;;5116788;28;19946;-57
2022/02/18 13:43:58;;;;;;;;;;;435.50;870.40;;;;;;5033670;28;20439;-58
2022/02/18 13:46:29;;;;;;;;;;;435.60;870.40;;;;;;5033619;28;19905;-56
2022/02/18 13:48:59;;;;;;;;;;;435.60;870.40;;;;;;5033578;28;20349;-58
2022/02/18 13:51:26;;;;;;;;;;;435.60;870.40;;;;;;5033446;28;20295;-56
2022/02/18 13:53:55;;;;;;;;;;;435.60;844.80;;;;;;5033443;28;20008;-55
2022/02/18 13:56:25;;;;;;;;;;;435.60;844.80;;;;;;5033531;28;20390;-56